createdAt,value
2023-08-18T00:01:17.560Z,64.57
2023-08-18T00:03:44.674Z,64.53
2023-08-18T00:06:11.782Z,64.27
2023-08-18T00:08:39.315Z,64.09
2023-08-18T00:11:07.009Z,64.50
2023-08-18T00:13:34.053Z,64.39
2023-08-18T00:16:01.155Z,64.27
2023-08-18T00:18:28.436Z,64.30
2023-08-18T00:20:55.410Z,64.66
2023-08-18T00:23:22.564Z,64.36
2023-08-18T00:25:49.548Z,64.53
2023-08-18T00:28:16.597Z,64.45
2023-08-18T00:30:43.534Z,64.29
2023-08-18T00:33:10.651Z,64.40
2023-08-18T00:35:38.961Z,64.19
2023-08-18T00:38:05.984Z,64.58
2023-08-18T00:40:32.975Z,64.37
2023-08-18T00:42:59.939Z,64.49
2023-08-18T00:45:28.165Z,64.12
2023-08-18T00:47:55.298Z,64.47
2023-08-18T00:50:22.528Z,64.15
2023-08-18T00:52:58.627Z,64.11
2023-08-18T00:55:28.484Z,64.39
2023-08-18T00:57:59.907Z,64.33
2023-08-18T01:00:27.011Z,64.35
2023-08-18T01:02:54.036Z,64.33
2023-08-18T01:05:21.318Z,63.88
2023-08-18T01:07:48.332Z,63.98
2023-08-18T01:10:15.834Z,63.71
2023-08-18T01:12:59.464Z,63.55
2023-08-18T01:15:34.189Z,63.76
2023-08-18T01:18:02.675Z,63.58
2023-08-18T01:20:31.181Z,63.10
2023-08-18T01:23:02.603Z,63.33
2023-08-18T01:25:30.006Z,63.17
2023-08-18T01:27:59.528Z,63.00
2023-08-18T01:30:36.834Z,63.16
2023-08-18T01:33:16.990Z,63.11
2023-08-18T01:35:46.457Z,63.10
2023-08-18T01:38:17.098Z,63.05
2023-08-18T01:40:47.777Z,62.82
2023-08-18T01:43:14.809Z,63.03
2023-08-18T01:45:41.741Z,62.69
2023-08-18T01:48:08.879Z,62.36
2023-08-18T01:50:35.889Z,62.59
2023-08-18T01:53:02.916Z,62.49
2023-08-18T01:55:29.911Z,62.72
2023-08-18T01:57:56.866Z,62.48
2023-08-18T02:00:23.825Z,62.51
2023-08-18T02:02:50.942Z,62.20
2023-08-18T02:05:18.094Z,62.58
2023-08-18T02:07:45.026Z,62.64
2023-08-18T02:10:12.167Z,62.54
2023-08-18T02:12:39.258Z,62.91
2023-08-18T02:15:06.854Z,62.75
2023-08-18T02:17:34.010Z,62.86
2023-08-18T02:20:01.198Z,62.99
2023-08-18T02:22:28.424Z,63.98
2023-08-18T02:24:55.563Z,63.68
2023-08-18T02:27:22.827Z,63.77
2023-08-18T02:29:49.922Z,63.76
2023-08-18T02:32:19.924Z,64.10
2023-08-18T02:34:47.546Z,64.14
2023-08-18T02:37:15.213Z,63.90
2023-08-18T02:39:43.055Z,64.09
2023-08-18T02:42:10.209Z,64.20
2023-08-18T02:44:37.244Z,63.94
2023-08-18T02:47:04.631Z,64.28
2023-08-18T02:49:31.791Z,64.09
2023-08-18T02:51:58.745Z,64.21
2023-08-18T02:54:25.707Z,64.20
2023-08-18T02:56:52.662Z,64.22
2023-08-18T02:59:20.596Z,64.11
2023-08-18T03:01:47.652Z,64.25
2023-08-18T03:04:15.775Z,64.16
2023-08-18T03:06:43.066Z,64.53
2023-08-18T03:09:10.122Z,64.31
2023-08-18T03:11:37.112Z,64.43
2023-08-18T03:14:06.534Z,64.38
2023-08-18T03:16:33.601Z,64.64
2023-08-18T03:19:00.863Z,64.36
2023-08-18T03:21:27.901Z,64.30
2023-08-18T03:23:55.045Z,64.52
2023-08-18T03:26:21.933Z,64.30
2023-08-18T03:28:48.914Z,64.28
2023-08-18T03:31:15.969Z,64.40
2023-08-18T03:33:42.968Z,64.34
2023-08-18T03:36:10.033Z,64.39
2023-08-18T03:38:36.937Z,64.68
2023-08-18T03:41:06.121Z,64.52
2023-08-18T03:43:33.842Z,64.42
2023-08-18T03:46:02.682Z,64.45
2023-08-18T03:48:29.874Z,64.82
2023-08-18T03:50:57.511Z,64.82
2023-08-18T03:53:25.379Z,64.54
2023-08-18T03:55:54.072Z,64.38
2023-08-18T03:58:21.025Z,64.65
2023-08-18T04:00:48.183Z,64.41
2023-08-18T04:03:16.393Z,64.23
2023-08-18T04:05:47.699Z,64.25
2023-08-18T04:08:16.048Z,64.42
2023-08-18T04:10:43.227Z,64.44
2023-08-18T04:13:10.233Z,64.41
2023-08-18T04:15:37.302Z,64.80
2023-08-18T04:18:04.498Z,64.63
2023-08-18T04:20:31.577Z,64.36
2023-08-18T04:22:58.637Z,64.64
2023-08-18T04:25:25.824Z,64.62
2023-08-18T04:27:52.799Z,64.65
2023-08-18T04:30:19.824Z,64.57
2023-08-18T04:32:46.770Z,64.04
2023-08-18T04:35:13.865Z,64.96
2023-08-18T04:37:40.808Z,65.00
2023-08-18T04:40:09.198Z,65.31
2023-08-18T04:42:36.186Z,65.63
2023-08-18T04:45:03.275Z,66.10
2023-08-18T04:47:30.277Z,65.92
2023-08-18T04:49:57.412Z,65.73
2023-08-18T04:52:24.786Z,65.54
2023-08-18T04:54:53.165Z,65.45
2023-08-18T04:57:20.070Z,65.36
2023-08-18T04:59:47.030Z,65.55
2023-08-18T05:02:13.962Z,65.77
2023-08-18T05:04:41.171Z,65.66
2023-08-18T05:07:08.867Z,65.80
2023-08-18T05:09:35.979Z,65.81
2023-08-18T05:12:03.767Z,66.02
2023-08-18T05:14:30.812Z,65.93
2023-08-18T05:16:57.729Z,66.01
2023-08-18T05:19:24.672Z,66.18
2023-08-18T05:21:51.814Z,66.49
2023-08-18T05:24:18.906Z,66.68
2023-08-18T05:26:45.857Z,66.86
2023-08-18T05:29:12.872Z,66.57
2023-08-18T05:31:39.913Z,66.53
2023-08-18T05:34:07.024Z,66.56
2023-08-18T05:36:34.038Z,66.32
2023-08-18T05:39:01.051Z,65.98
2023-08-18T05:41:27.938Z,66.30
2023-08-18T05:43:55.037Z,66.10
2023-08-18T05:46:22.063Z,65.76
2023-08-18T05:48:49.083Z,65.69
2023-08-18T05:51:16.155Z,65.83
2023-08-18T05:53:43.443Z,65.74
2023-08-18T05:56:10.676Z,65.97
2023-08-18T05:58:38.124Z,65.87
2023-08-18T06:01:05.488Z,65.79
2023-08-18T06:03:32.474Z,65.61
2023-08-18T06:06:05.217Z,65.85
2023-08-18T06:08:34.372Z,65.59
2023-08-18T06:11:01.402Z,65.50
2023-08-18T06:13:28.541Z,65.60
2023-08-18T06:15:55.966Z,65.44
2023-08-18T06:18:23.314Z,65.34
2023-08-18T06:20:52.101Z,65.02
2023-08-18T06:23:19.075Z,65.23
2023-08-18T06:25:46.142Z,65.36
2023-08-18T06:28:13.183Z,65.67
2023-08-18T06:30:40.301Z,63.87
2023-08-18T06:33:07.429Z,62.46
2023-08-18T06:35:34.579Z,62.30
2023-08-18T06:38:01.584Z,63.68
2023-08-18T06:40:28.658Z,63.68
2023-08-18T06:42:55.672Z,64.33
2023-08-18T06:45:22.628Z,64.31
2023-08-18T06:47:49.741Z,64.54
2023-08-18T06:50:16.817Z,64.52
2023-08-18T06:52:44.091Z,64.54
2023-08-18T06:55:16.947Z,64.67
2023-08-18T06:57:47.973Z,64.78
2023-08-18T07:00:18.576Z,64.75
2023-08-18T07:02:47.189Z,64.64
2023-08-18T07:05:14.371Z,64.63
2023-08-18T07:07:41.459Z,64.91
2023-08-18T07:10:09.009Z,64.63
2023-08-18T07:12:36.054Z,64.82
2023-08-18T07:15:03.245Z,64.78
2023-08-18T07:17:30.406Z,64.85
2023-08-18T07:19:57.487Z,65.01
2023-08-18T07:22:24.692Z,65.09
2023-08-18T07:24:51.964Z,65.12
2023-08-18T07:27:19.200Z,64.98
2023-08-18T07:29:46.551Z,65.08
2023-08-18T07:32:13.884Z,65.21
2023-08-18T07:34:41.020Z,65.03
2023-08-18T07:37:08.372Z,65.22
2023-08-18T07:39:36.478Z,65.20
2023-08-18T07:42:03.965Z,64.93
2023-08-18T07:44:31.514Z,64.96
2023-08-18T07:46:58.843Z,64.83
2023-08-18T07:49:26.173Z,64.99
2023-08-18T07:51:53.238Z,65.13
2023-08-18T07:54:21.021Z,65.40
2023-08-18T07:56:48.087Z,65.26
2023-08-18T07:59:15.729Z,64.91
2023-08-18T08:01:43.328Z,64.80
2023-08-18T08:04:10.734Z,64.94
2023-08-18T08:06:38.296Z,64.76
2023-08-18T08:09:05.925Z,65.08
2023-08-18T08:11:32.982Z,64.97
2023-08-18T08:14:00.065Z,65.16
2023-08-18T08:16:27.184Z,65.04
2023-08-18T08:18:54.484Z,64.94
2023-08-18T08:21:24.084Z,65.12
2023-08-18T08:23:52.736Z,65.10
2023-08-18T08:26:19.858Z,65.29
2023-08-18T08:28:46.928Z,65.20
2023-08-18T08:31:14.157Z,64.94
2023-08-18T08:33:41.157Z,65.15
2023-08-18T08:36:08.320Z,65.15
2023-08-18T08:38:35.425Z,64.90
2023-08-18T08:41:02.522Z,64.54
2023-08-18T08:43:30.178Z,64.34
2023-08-18T08:46:00.408Z,64.40
2023-08-18T08:48:33.813Z,64.53
2023-08-18T08:51:07.155Z,64.59
2023-08-18T08:53:40.542Z,64.21
2023-08-18T08:56:09.631Z,64.45
2023-08-18T08:58:37.699Z,64.61
2023-08-18T09:01:11.413Z,64.67
2023-08-18T09:03:38.968Z,64.38
2023-08-18T09:06:08.472Z,64.58
2023-08-18T09:08:35.661Z,64.40
2023-08-18T09:11:03.345Z,64.43
2023-08-18T09:13:30.421Z,64.46
2023-08-18T09:15:58.656Z,64.39
2023-08-18T09:18:26.655Z,64.15
2023-08-18T09:20:57.530Z,64.26
2023-08-18T09:23:27.689Z,64.09
2023-08-18T09:25:58.922Z,64.27
2023-08-18T09:28:28.245Z,64.22
2023-08-18T09:30:55.392Z,63.79
2023-08-18T09:33:34.129Z,63.30
2023-08-18T09:36:01.621Z,63.28
2023-08-18T09:38:30.021Z,63.14
2023-08-18T09:40:58.113Z,63.67
2023-08-18T09:43:26.408Z,63.15
2023-08-18T09:45:59.188Z,63.58
2023-08-18T09:48:28.813Z,63.49
2023-08-18T09:50:59.210Z,62.81
2023-08-18T09:53:31.513Z,62.81
2023-08-18T09:56:09.307Z,62.92
2023-08-18T09:58:42.334Z,62.95
2023-08-18T10:01:10.729Z,62.45
2023-08-18T10:03:42.430Z,62.19
2023-08-18T10:06:10.847Z,62.14
2023-08-18T10:08:37.903Z,61.97
2023-08-18T10:11:05.206Z,62.10
2023-08-18T10:13:35.260Z,62.47
2023-08-18T10:16:08.527Z,62.13
2023-08-18T10:18:35.784Z,62.36
2023-08-18T10:21:03.121Z,62.71
2023-08-18T10:23:32.223Z,62.56
2023-08-18T10:25:59.462Z,62.35
2023-08-18T10:28:30.708Z,62.49
2023-08-18T10:31:00.968Z,62.71
2023-08-18T10:33:33.381Z,62.21
2023-08-18T10:36:04.426Z,62.23
2023-08-18T10:38:32.032Z,62.13
2023-08-18T10:40:59.374Z,61.91
2023-08-18T10:43:29.129Z,61.79
2023-08-18T10:46:03.076Z,61.80
2023-08-18T10:48:36.299Z,61.62
2023-08-18T10:51:04.626Z,61.67
2023-08-18T10:53:38.678Z,61.89
2023-08-18T10:56:06.388Z,61.98
2023-08-18T10:58:35.900Z,62.43
2023-08-18T11:01:03.782Z,62.21
2023-08-18T11:03:32.676Z,62.23
2023-08-18T11:05:59.833Z,62.01
2023-08-18T11:08:27.146Z,61.86
2023-08-18T11:10:55.127Z,61.92
2023-08-18T11:13:26.182Z,62.30
2023-08-18T11:15:53.803Z,62.32
2023-08-18T11:18:22.200Z,62.17
2023-08-18T11:20:50.768Z,62.64
2023-08-18T11:23:18.468Z,62.38
2023-08-18T11:25:46.974Z,62.52
2023-08-18T11:28:15.146Z,61.90
2023-08-18T11:30:42.440Z,62.17
2023-08-18T11:33:09.544Z,62.40
2023-08-18T11:35:37.266Z,62.42
2023-08-18T11:38:05.562Z,63.20
2023-08-18T11:40:38.600Z,62.40
2023-08-18T11:43:11.966Z,63.12
2023-08-18T11:45:39.646Z,63.32
2023-08-18T11:48:07.720Z,62.99
2023-08-18T11:50:35.842Z,63.08
2023-08-18T11:53:04.926Z,63.32
2023-08-18T11:55:36.803Z,63.12
2023-08-18T11:58:06.507Z,63.46
2023-08-18T12:00:38.347Z,63.79
2023-08-18T12:03:21.599Z,63.59
2023-08-18T12:05:48.754Z,63.35
2023-08-18T12:08:16.464Z,63.10
2023-08-18T12:10:46.261Z,63.13
2023-08-18T12:13:13.359Z,62.87
2023-08-18T12:15:40.636Z,63.20
2023-08-18T12:18:08.160Z,63.15
2023-08-18T12:20:36.841Z,63.56
2023-08-18T12:23:07.020Z,63.85
2023-08-18T12:25:34.206Z,63.80
2023-08-18T12:28:01.326Z,63.89
2023-08-18T12:30:28.482Z,63.75
2023-08-18T12:32:55.599Z,64.01
2023-08-18T12:35:22.799Z,63.58
2023-08-18T12:37:50.918Z,62.06
2023-08-18T12:40:17.979Z,61.96
2023-08-18T12:42:45.118Z,62.27
2023-08-18T12:45:12.186Z,62.49
2023-08-18T12:47:40.142Z,63.01
2023-08-18T12:50:08.367Z,63.17
2023-08-18T12:52:35.802Z,63.12
2023-08-18T12:55:05.177Z,63.58
2023-08-18T12:57:32.673Z,63.31
2023-08-18T12:59:59.885Z,63.49
2023-08-18T13:02:27.144Z,63.71
2023-08-18T13:04:54.266Z,63.55
2023-08-18T13:07:21.410Z,63.41
2023-08-18T13:09:49.288Z,63.53
2023-08-18T13:12:19.288Z,63.68
2023-08-18T13:14:46.722Z,63.69
2023-08-18T13:17:14.459Z,63.61
2023-08-18T13:19:47.540Z,63.74
2023-08-18T13:22:15.466Z,63.65
2023-08-18T13:24:42.584Z,64.22
2023-08-18T13:27:09.891Z,64.32
2023-08-18T13:29:37.209Z,64.41
2023-08-18T13:32:04.460Z,63.95
2023-08-18T13:34:31.808Z,64.03
2023-08-18T13:36:58.906Z,64.80
2023-08-18T13:39:25.946Z,64.39
2023-08-18T13:41:52.982Z,64.40
2023-08-18T13:44:20.153Z,64.39
2023-08-18T13:46:47.380Z,64.46
2023-08-18T13:49:14.529Z,64.31
2023-08-18T13:51:42.248Z,64.52
2023-08-18T13:54:13.476Z,64.46
2023-08-18T13:56:41.781Z,64.27
2023-08-18T13:59:09.163Z,64.61
2023-08-18T14:01:36.468Z,64.39
2023-08-18T14:04:04.756Z,64.44
2023-08-18T14:06:31.917Z,64.49
2023-08-18T14:08:59.207Z,64.80
2023-08-18T14:11:27.750Z,65.36
2023-08-18T14:13:55.410Z,65.22
2023-08-18T14:16:22.894Z,65.40
2023-08-18T14:18:50.251Z,65.16
2023-08-18T14:21:17.505Z,65.36
2023-08-18T14:23:44.677Z,65.29
2023-08-18T14:26:12.034Z,65.15
2023-08-18T14:28:39.096Z,64.53
2023-08-18T14:31:12.588Z,65.38
2023-08-18T14:33:46.308Z,65.41
2023-08-18T14:36:17.979Z,65.72
2023-08-18T14:38:45.626Z,65.35
2023-08-18T14:41:13.322Z,65.59
2023-08-18T14:43:40.970Z,65.51
2023-08-18T14:46:09.649Z,65.12
2023-08-18T14:48:38.482Z,65.65
2023-08-18T14:51:08.316Z,65.34
2023-08-18T14:53:37.876Z,65.77
2023-08-18T14:56:05.275Z,65.73
2023-08-18T14:58:32.813Z,65.79
2023-08-18T15:00:59.969Z,66.06
2023-08-18T15:03:27.188Z,65.77
2023-08-18T15:05:54.686Z,65.83
2023-08-18T15:08:21.843Z,65.69
2023-08-18T15:10:49.903Z,65.62
2023-08-18T15:13:17.218Z,65.61
2023-08-18T15:15:44.578Z,65.29
2023-08-18T15:18:11.652Z,65.22
2023-08-18T15:20:38.990Z,65.43
2023-08-18T15:23:06.318Z,65.67
2023-08-18T15:25:33.577Z,65.55
2023-08-18T15:28:00.621Z,65.56
2023-08-18T15:30:28.056Z,65.90
2023-08-18T15:32:55.190Z,65.75
2023-08-18T15:35:22.444Z,65.54
2023-08-18T15:37:51.380Z,65.16
2023-08-18T15:40:18.611Z,65.11
2023-08-18T15:42:45.692Z,65.12
2023-08-18T15:45:16.063Z,64.97
2023-08-18T15:47:43.566Z,65.18
2023-08-18T15:50:11.342Z,65.15
2023-08-18T15:52:38.584Z,65.68
2023-08-18T15:55:06.062Z,65.30
2023-08-18T15:57:33.823Z,65.31
2023-08-18T16:00:01.099Z,65.42
2023-08-18T16:02:28.093Z,65.98
2023-08-18T16:04:55.255Z,65.97
2023-08-18T16:07:22.208Z,65.06
2023-08-18T16:09:49.745Z,65.26
2023-08-18T16:12:16.768Z,65.50
2023-08-18T16:17:14.767Z,67.44
2023-08-18T16:19:41.980Z,67.43
2023-08-18T16:22:09.237Z,67.03
2023-08-18T16:24:36.850Z,67.10
2023-08-18T16:27:04.154Z,66.92
2023-08-18T16:29:31.304Z,67.22
2023-08-18T16:31:58.702Z,67.48
2023-08-18T16:34:29.015Z,67.36
2023-08-18T16:36:57.371Z,67.57
2023-08-18T16:39:24.779Z,67.85
2023-08-18T16:41:52.064Z,68.01
2023-08-18T16:44:19.645Z,67.81
2023-08-18T16:46:47.204Z,67.56
2023-08-18T16:49:14.501Z,67.44
2023-08-18T16:51:41.648Z,67.47
2023-08-18T16:54:08.780Z,67.40
2023-08-18T16:56:36.218Z,67.39
2023-08-18T16:59:03.270Z,67.67
2023-08-18T17:01:30.347Z,67.25
2023-08-18T17:03:57.942Z,67.42
2023-08-18T17:06:28.028Z,67.90
2023-08-18T17:08:56.560Z,67.76
2023-08-18T17:11:26.027Z,67.74
2023-08-18T17:13:56.655Z,67.76
2023-08-18T17:16:27.011Z,67.92
2023-08-18T17:18:54.845Z,68.17
2023-08-18T17:21:23.240Z,67.72
2023-08-18T17:23:51.009Z,67.86
2023-08-18T17:26:18.735Z,67.84
2023-08-18T17:28:46.451Z,67.74
2023-08-18T17:31:14.674Z,67.76
2023-08-18T17:33:42.935Z,67.77
2023-08-18T17:36:11.981Z,67.63
2023-08-18T17:38:40.622Z,67.76
2023-08-18T17:41:08.325Z,67.49
2023-08-18T17:43:35.510Z,67.81
2023-08-18T17:46:05.700Z,67.74
2023-08-18T17:48:33.133Z,67.59
2023-08-18T17:51:03.131Z,67.77
2023-08-18T17:53:32.041Z,67.71
2023-08-18T17:56:03.274Z,67.74
2023-08-18T17:58:30.382Z,67.40
2023-08-18T18:00:59.960Z,67.78
2023-08-18T18:03:27.896Z,67.65
2023-08-18T18:05:55.112Z,67.63
2023-08-18T18:08:22.335Z,67.74
2023-08-18T18:10:51.004Z,67.86
2023-08-18T18:13:18.749Z,67.86
2023-08-18T18:15:46.142Z,67.63
2023-08-18T18:18:15.045Z,68.18
2023-08-18T18:20:42.168Z,68.20
2023-08-18T18:23:10.631Z,68.22
2023-08-18T18:25:37.683Z,68.43
2023-08-18T18:28:05.222Z,68.56
2023-08-18T18:30:32.437Z,68.62
2023-08-18T18:32:59.633Z,68.74
2023-08-18T18:35:27.817Z,68.39
2023-08-18T18:37:54.922Z,68.37
2023-08-18T18:40:22.304Z,68.32
2023-08-18T18:42:49.530Z,68.57
2023-08-18T18:45:16.915Z,68.32
2023-08-18T18:47:44.232Z,68.52
2023-08-18T18:50:11.725Z,68.53
2023-08-18T18:52:42.933Z,68.07
2023-08-18T18:55:12.819Z,68.03
2023-08-18T18:57:41.012Z,68.46
2023-08-18T19:00:08.776Z,67.75
2023-08-18T19:02:36.761Z,67.86
2023-08-18T19:05:04.588Z,67.74
2023-08-18T19:07:32.246Z,67.75
2023-08-18T19:09:59.858Z,67.73
2023-08-18T19:12:27.133Z,68.84
2023-08-18T19:14:54.977Z,69.11
2023-08-18T19:17:22.190Z,68.71
2023-08-18T19:19:49.543Z,68.50
2023-08-18T19:22:21.506Z,68.75
2023-08-18T19:24:50.619Z,68.62
2023-08-18T19:27:18.098Z,68.84
2023-08-18T19:29:46.252Z,68.93
2023-08-18T19:32:13.825Z,69.28
2023-08-18T19:34:42.859Z,69.45
2023-08-18T19:37:11.164Z,69.39
2023-08-18T19:39:39.771Z,69.29
2023-08-18T19:42:08.010Z,69.23
2023-08-18T19:44:37.014Z,69.05
2023-08-18T19:47:05.590Z,68.66
2023-08-18T19:49:33.006Z,69.03
2023-08-18T19:52:00.459Z,68.42
2023-08-18T19:54:28.115Z,68.17
2023-08-18T19:56:55.996Z,68.82
2023-08-18T19:59:23.437Z,68.53
2023-08-18T20:01:51.339Z,68.14
2023-08-18T20:04:21.113Z,67.86
2023-08-18T20:06:49.173Z,67.96
2023-08-18T20:09:17.028Z,67.74
2023-08-18T20:11:45.273Z,67.64
2023-08-18T20:14:15.651Z,67.97
2023-08-18T20:16:44.815Z,67.62
2023-08-18T20:19:12.643Z,67.76
2023-08-18T20:21:40.648Z,67.52
2023-08-18T20:24:10.739Z,67.58
2023-08-18T20:26:38.970Z,67.13
2023-08-18T20:29:07.558Z,67.00
2023-08-18T20:31:36.588Z,66.85
2023-08-18T20:34:05.485Z,66.98
2023-08-18T20:36:33.938Z,66.68
2023-08-18T20:39:01.668Z,66.57
2023-08-18T20:41:31.415Z,66.44
2023-08-18T20:43:58.572Z,66.40
2023-08-18T20:46:26.745Z,66.42
2023-08-18T20:48:54.235Z,66.60
2023-08-18T20:51:21.460Z,66.44
2023-08-18T20:53:50.932Z,66.47
2023-08-18T20:56:22.404Z,66.25
2023-08-18T20:58:49.730Z,65.89
2023-08-18T21:01:17.053Z,66.09
2023-08-18T21:03:45.791Z,65.96
2023-08-18T21:06:13.328Z,66.09
2023-08-18T21:08:41.175Z,66.15
2023-08-18T21:11:09.447Z,66.07
2023-08-18T21:13:37.178Z,66.08
2023-08-18T21:16:04.597Z,66.15
2023-08-18T21:18:31.647Z,65.97
2023-08-18T21:21:01.558Z,66.20
2023-08-18T21:23:29.079Z,66.17
2023-08-18T21:25:56.267Z,66.56
2023-08-18T21:28:23.601Z,66.04
2023-08-18T21:30:51.803Z,66.45
2023-08-18T21:33:18.886Z,66.25
2023-08-18T21:35:49.092Z,65.96
2023-08-18T21:38:16.242Z,66.16
2023-08-18T21:40:49.302Z,66.39
2023-08-18T21:43:16.357Z,66.39
2023-08-18T21:45:44.859Z,66.47
2023-08-18T21:48:13.544Z,66.85
2023-08-18T21:50:42.532Z,66.88
2023-08-18T21:53:09.871Z,66.85
2023-08-18T21:55:36.948Z,66.92
2023-08-18T21:58:04.482Z,67.00
2023-08-18T22:00:31.637Z,67.16
2023-08-18T22:02:59.227Z,67.26
2023-08-18T22:05:26.438Z,67.24
2023-08-18T22:07:53.762Z,66.96
2023-08-18T22:10:21.745Z,67.53
2023-08-18T22:12:49.156Z,67.02
2023-08-18T22:15:16.261Z,66.99
2023-08-18T22:17:44.881Z,67.19
2023-08-18T22:20:12.698Z,67.00
2023-08-18T22:22:39.979Z,66.93
2023-08-18T22:25:07.978Z,67.10
2023-08-18T22:27:35.236Z,67.04
2023-08-18T22:30:02.488Z,67.04
2023-08-18T22:32:29.996Z,67.06
2023-08-18T22:34:57.293Z,66.72
2023-08-18T22:37:24.386Z,66.55
2023-08-18T22:39:51.500Z,66.81
2023-08-18T22:42:18.770Z,66.71
2023-08-18T22:44:46.470Z,66.73
2023-08-18T22:47:16.654Z,66.92
2023-08-18T22:49:46.646Z,66.90
2023-08-18T22:52:14.378Z,66.78
2023-08-18T22:54:42.022Z,66.85
2023-08-18T22:57:09.618Z,66.80
2023-08-18T22:59:36.800Z,66.51
2023-08-18T23:02:04.499Z,66.50
2023-08-18T23:04:31.643Z,66.88
2023-08-18T23:06:58.774Z,66.92
2023-08-18T23:09:26.122Z,66.86
2023-08-18T23:11:53.099Z,66.78
2023-08-18T23:14:20.217Z,67.14
2023-08-18T23:16:48.146Z,67.17
2023-08-18T23:19:15.153Z,66.90
2023-08-18T23:21:42.365Z,66.94
2023-08-18T23:24:09.513Z,66.94
2023-08-18T23:26:36.477Z,67.08
2023-08-18T23:29:03.738Z,66.97
2023-08-18T23:31:30.735Z,67.11
2023-08-18T23:33:57.876Z,66.95
2023-08-18T23:36:24.976Z,67.19
2023-08-18T23:38:52.052Z,67.37
2023-08-18T23:41:19.534Z,67.15
2023-08-18T23:43:48.861Z,66.85
2023-08-18T23:46:16.423Z,67.62
2023-08-18T23:48:45.673Z,67.35
2023-08-18T23:51:14.329Z,67.33
2023-08-18T23:53:41.440Z,67.43
2023-08-18T23:56:08.975Z,67.26
2023-08-18T23:58:36.961Z,67.49
